Lebanon, NJ (08833)

6:42 AM EDT on July 30, 2016 (GMT -0400)
Misia | | Change Station

Elev 479 ft 40.61 °N, 74.79 °W | Updated 29 seconds ago

Scattered Clouds
Scattered Clouds
70.6 °F
Feels Like 72 °F
N
0.0
Wind Variable Wind from North
Gusts 4.0 mph

Today
High -- | Low -- °F
--% Chance of Precip.
Yesterday
High -- | Low -- °F
Precip. -- in
Pressure 29.94 in
Visibility 7.0 miles
Clouds Scattered Clouds 10000 ft
Heat Index 72 °F
Dew Point 62 °F
Humidity 77%
Rainfall 0.00 in
Snow Depth Not available.
5:54 AM 8:16 PM
Waning Crescent, 14% visible
METAR KSMQ 300953Z AUTO 00000KT 7SM SCT100 21/19 A2995 RMK AO2 SLP139 T02060194
Pressure 29.94 in
Visibility 7.0 miles
Clouds Scattered Clouds 10000 ft
Heat Index 72 °F
Dew Point 62 °F
Humidity 77%
Rainfall 0.00 in
Snow Depth Not available.
5:54 AM 8:16 PM
Waning Crescent, 14% visible
METAR KSMQ 300953Z AUTO 00000KT 7SM SCT100 21/19 A2995 RMK AO2 SLP139 T02060194

10-Day Weather Forecast

Almanac

Astronomy

Jul. 30, 2016 Rise Set
Actual Time
Civil Twilight
Nautical Twilight
Astronomical Twilight
Moon
Length of Visible Light
Length of Day
Tomorrow will be .
, % of the Moon is Illuminated

Today's Extremes

State Highs State Lows

Community

WunderPhotos

Upload Photos

1,928,530 photos uploaded!

WunderBlog® & News

Nearby

Air Quality

  Air Quality AQ Index Pollutant
Not available.

Snow Depth

Station Depth Elevation

Earthquake Activity

City Distance Mag. Time & Date
Minimum magnitude displayed is 2.5.

Coastal Water Temperatures

Place Temperature

Stations

Nearby Weather Stations

Station Location Temp. Windchill Dew Point Humidity Wind Precip. Elev Updated Type
                   

Watches & Warnings

There are currently no watches in effect.